sensor_id;sensor_type;location;lat;lon;timestamp;temperature;humidity
3416;DHT22;1721;51.238;9.562;2022-12-18T00:01:33;-5.60;73.70
3416;DHT22;1721;51.238;9.562;2022-12-18T00:04:01;-5.60;73.20
3416;DHT22;1721;51.238;9.562;2022-12-18T00:06:29;-5.50;73.20
3416;DHT22;1721;51.238;9.562;2022-12-18T00:08:56;-5.60;73.00
3416;DHT22;1721;51.238;9.562;2022-12-18T00:11:24;-5.60;72.90
3416;DHT22;1721;51.238;9.562;2022-12-18T00:13:51;-5.70;72.50
3416;DHT22;1721;51.238;9.562;2022-12-18T00:16:19;-5.80;72.50
3416;DHT22;1721;51.238;9.562;2022-12-18T00:18:46;-5.80;72.80
3416;DHT22;1721;51.238;9.562;2022-12-18T00:21:13;-5.80;72.70
3416;DHT22;1721;51.238;9.562;2022-12-18T00:23:40;-5.70;73.00
3416;DHT22;1721;51.238;9.562;2022-12-18T00:26:33;-5.70;73.00
3416;DHT22;1721;51.238;9.562;2022-12-18T00:29:01;-5.70;73.10
3416;DHT22;1721;51.238;9.562;2022-12-18T00:31:28;-5.80;73.00
3416;DHT22;1721;51.238;9.562;2022-12-18T00:33:57;-5.70;72.90
3416;DHT22;1721;51.238;9.562;2022-12-18T00:36:25;-5.70;72.60
3416;DHT22;1721;51.238;9.562;2022-12-18T00:38:51;-5.70;72.30
3416;DHT22;1721;51.238;9.562;2022-12-18T00:41:17;-5.70;71.80
3416;DHT22;1721;51.238;9.562;2022-12-18T00:44:04;-5.70;71.80
3416;DHT22;1721;51.238;9.562;2022-12-18T00:46:30;-5.70;71.80
3416;DHT22;1721;51.238;9.562;2022-12-18T00:48:55;-5.70;71.80
3416;DHT22;1721;51.238;9.562;2022-12-18T00:51:21;-5.80;71.90
3416;DHT22;1721;51.238;9.562;2022-12-18T00:53:46;-5.80;71.80
3416;DHT22;1721;51.238;9.562;2022-12-18T00:56:12;-5.70;71.80
3416;DHT22;1721;51.238;9.562;2022-12-18T00:58:37;-5.80;71.80
3416;DHT22;1721;51.238;9.562;2022-12-18T01:01:06;-5.80;71.90
3416;DHT22;1721;51.238;9.562;2022-12-18T01:03:32;-5.80;71.80
3416;DHT22;1721;51.238;9.562;2022-12-18T01:05:58;-5.80;71.70
3416;DHT22;1721;51.238;9.562;2022-12-18T01:08:23;-5.80;71.30
3416;DHT22;1721;51.238;9.562;2022-12-18T01:10:49;-5.90;71.70
3416;DHT22;1721;51.238;9.562;2022-12-18T01:13:15;-5.90;71.80
3416;DHT22;1721;51.238;9.562;2022-12-18T01:15:47;-5.90;71.90
3416;DHT22;1721;51.238;9.562;2022-12-18T01:18:12;-6.10;71.70
3416;DHT22;1721;51.238;9.562;2022-12-18T01:20:38;-6.00;72.00
3416;DHT22;1721;51.238;9.562;2022-12-18T01:23:03;-6.00;72.00
3416;DHT22;1721;51.238;9.562;2022-12-18T01:25:29;-6.00;72.30
3416;DHT22;1721;51.238;9.562;2022-12-18T01:27:55;-6.00;73.20
3416;DHT22;1721;51.238;9.562;2022-12-18T01:30:20;-5.90;73.40
3416;DHT22;1721;51.238;9.562;2022-12-18T01:32:46;-5.90;73.30
3416;DHT22;1721;51.238;9.562;2022-12-18T01:35:11;-5.90;73.50
3416;DHT22;1721;51.238;9.562;2022-12-18T01:37:37;-5.90;73.70
3416;DHT22;1721;51.238;9.562;2022-12-18T01:40:03;-5.90;73.50
3416;DHT22;1721;51.238;9.562;2022-12-18T01:42:28;-6.00;73.20
3416;DHT22;1721;51.238;9.562;2022-12-18T01:52:54;-5.80;72.40
3416;DHT22;1721;51.238;9.562;2022-12-18T01:55:23;-5.80;72.30
3416;DHT22;1721;51.238;9.562;2022-12-18T01:57:52;-5.80;72.00
3416;DHT22;1721;51.238;9.562;2022-12-18T02:00:20;-5.80;72.00
3416;DHT22;1721;51.238;9.562;2022-12-18T02:02:47;-5.90;71.90
3416;DHT22;1721;51.238;9.562;2022-12-18T02:05:18;-5.90;72.00
3416;DHT22;1721;51.238;9.562;2022-12-18T02:10:43;-6.00;72.10
3416;DHT22;1721;51.238;9.562;2022-12-18T02:13:46;-6.00;72.20
3416;DHT22;1721;51.238;9.562;2022-12-18T02:18:54;-5.90;71.80
3416;DHT22;1721;51.238;9.562;2022-12-18T02:21:42;-6.00;72.00
3416;DHT22;1721;51.238;9.562;2022-12-18T02:24:29;-6.00;72.20
3416;DHT22;1721;51.238;9.562;2022-12-18T02:27:09;-6.00;72.30
3416;DHT22;1721;51.238;9.562;2022-12-18T02:29:40;-5.90;72.50
3416;DHT22;1721;51.238;9.562;2022-12-18T02:32:13;-5.90;72.20
3416;DHT22;1721;51.238;9.562;2022-12-18T02:34:40;-6.00;72.40
3416;DHT22;1721;51.238;9.562;2022-12-18T02:37:09;-5.90;72.40
3416;DHT22;1721;51.238;9.562;2022-12-18T02:39:39;-5.90;72.30
3416;DHT22;1721;51.238;9.562;2022-12-18T02:42:06;-5.90;72.90
3416;DHT22;1721;51.238;9.562;2022-12-18T02:44:41;-6.00;72.40
3416;DHT22;1721;51.238;9.562;2022-12-18T02:47:10;-5.90;72.60
3416;DHT22;1721;51.238;9.562;2022-12-18T02:52:33;-5.90;72.10
3416;DHT22;1721;51.238;9.562;2022-12-18T02:55:24;-5.90;72.10
3416;DHT22;1721;51.238;9.562;2022-12-18T02:57:56;-5.90;72.10
3416;DHT22;1721;51.238;9.562;2022-12-18T03:00:30;-5.90;72.10
3416;DHT22;1721;51.238;9.562;2022-12-18T03:05:34;-5.90;72.00
3416;DHT22;1721;51.238;9.562;2022-12-18T03:08:08;-5.90;72.10
3416;DHT22;1721;51.238;9.562;2022-12-18T03:10:42;-5.90;72.00
3416;DHT22;1721;51.238;9.562;2022-12-18T03:13:13;-5.90;71.60
3416;DHT22;1721;51.238;9.562;2022-12-18T03:15:45;-5.90;71.60
3416;DHT22;1721;51.238;9.562;2022-12-18T03:18:18;-5.90;71.50
3416;DHT22;1721;51.238;9.562;2022-12-18T03:20:47;-6.00;71.50
3416;DHT22;1721;51.238;9.562;2022-12-18T03:23:18;-6.00;71.40
3416;DHT22;1721;51.238;9.562;2022-12-18T03:25:47;-6.00;71.40
3416;DHT22;1721;51.238;9.562;2022-12-18T03:28:16;-6.00;71.30
3416;DHT22;1721;51.238;9.562;2022-12-18T03:30:45;-6.00;71.70
3416;DHT22;1721;51.238;9.562;2022-12-18T03:33:24;-6.10;71.60
3416;DHT22;1721;51.238;9.562;2022-12-18T03:35:50;-6.40;71.50
3416;DHT22;1721;51.238;9.562;2022-12-18T03:38:16;-6.40;72.30
3416;DHT22;1721;51.238;9.562;2022-12-18T03:43:49;-6.20;71.70
3416;DHT22;1721;51.238;9.562;2022-12-18T03:46:30;-6.20;71.40
3416;DHT22;1721;51.238;9.562;2022-12-18T03:49:10;-6.10;71.60
3416;DHT22;1721;51.238;9.562;2022-12-18T03:51:43;-6.10;71.40
3416;DHT22;1721;51.238;9.562;2022-12-18T03:54:11;-6.10;71.80
3416;DHT22;1721;51.238;9.562;2022-12-18T03:56:40;-6.00;72.00
3416;DHT22;1721;51.238;9.562;2022-12-18T03:59:07;-6.00;72.10
3416;DHT22;1721;51.238;9.562;2022-12-18T04:01:38;-6.00;72.20
3416;DHT22;1721;51.238;9.562;2022-12-18T04:04:06;-6.00;72.10
3416;DHT22;1721;51.238;9.562;2022-12-18T04:06:35;-6.00;72.40
3416;DHT22;1721;51.238;9.562;2022-12-18T04:09:01;-6.10;72.40
3416;DHT22;1721;51.238;9.562;2022-12-18T04:11:27;-6.00;72.60
3416;DHT22;1721;51.238;9.562;2022-12-18T04:13:56;-6.00;72.60
3416;DHT22;1721;51.238;9.562;2022-12-18T04:16:23;-5.90;72.50
3416;DHT22;1721;51.238;9.562;2022-12-18T04:18:48;-5.90;72.20
3416;DHT22;1721;51.238;9.562;2022-12-18T04:21:14;-5.90;72.20
3416;DHT22;1721;51.238;9.562;2022-12-18T04:23:39;-5.90;72.20
3416;DHT22;1721;51.238;9.562;2022-12-18T04:26:05;-6.00;71.90
3416;DHT22;1721;51.238;9.562;2022-12-18T04:28:31;-6.00;71.80
3416;DHT22;1721;51.238;9.562;2022-12-18T04:30:56;-6.10;72.40
3416;DHT22;1721;51.238;9.562;2022-12-18T04:33:22;-6.00;72.40
3416;DHT22;1721;51.238;9.562;2022-12-18T04:35:47;-6.10;73.00
3416;DHT22;1721;51.238;9.562;2022-12-18T04:38:13;-6.00;73.30
3416;DHT22;1721;51.238;9.562;2022-12-18T04:40:38;-6.10;73.30
3416;DHT22;1721;51.238;9.562;2022-12-18T04:43:04;-6.20;73.10
3416;DHT22;1721;51.238;9.562;2022-12-18T04:45:31;-6.20;72.80
3416;DHT22;1721;51.238;9.562;2022-12-18T04:47:58;-6.20;72.60
3416;DHT22;1721;51.238;9.562;2022-12-18T04:50:23;-6.00;72.60
3416;DHT22;1721;51.238;9.562;2022-12-18T04:52:49;-6.00;72.20
3416;DHT22;1721;51.238;9.562;2022-12-18T04:55:15;-6.00;72.00
3416;DHT22;1721;51.238;9.562;2022-12-18T04:57:40;-5.90;72.00
3416;DHT22;1721;51.238;9.562;2022-12-18T05:00:06;-5.90;72.00
3416;DHT22;1721;51.238;9.562;2022-12-18T05:02:32;-5.90;72.20
3416;DHT22;1721;51.238;9.562;2022-12-18T05:04:58;-6.00;71.90
3416;DHT22;1721;51.238;9.562;2022-12-18T05:07:23;-5.90;72.00
3416;DHT22;1721;51.238;9.562;2022-12-18T05:09:49;-6.10;72.20
3416;DHT22;1721;51.238;9.562;2022-12-18T05:12:15;-6.10;73.10
3416;DHT22;1721;51.238;9.562;2022-12-18T05:14:40;-6.00;73.30
3416;DHT22;1721;51.238;9.562;2022-12-18T05:17:06;-6.00;73.50
3416;DHT22;1721;51.238;9.562;2022-12-18T05:19:31;-5.90;73.50
3416;DHT22;1721;51.238;9.562;2022-12-18T05:21:57;-5.90;73.20
3416;DHT22;1721;51.238;9.562;2022-12-18T05:24:23;-5.90;72.70
3416;DHT22;1721;51.238;9.562;2022-12-18T05:26:48;-5.90;72.50
3416;DHT22;1721;51.238;9.562;2022-12-18T05:29:14;-5.90;72.40
3416;DHT22;1721;51.238;9.562;2022-12-18T05:31:39;-6.00;72.30
3416;DHT22;1721;51.238;9.562;2022-12-18T05:34:05;-6.00;72.50
3416;DHT22;1721;51.238;9.562;2022-12-18T05:36:31;-6.00;73.10
3416;DHT22;1721;51.238;9.562;2022-12-18T05:38:56;-6.00;74.40
3416;DHT22;1721;51.238;9.562;2022-12-18T05:41:22;-5.90;74.30
3416;DHT22;1721;51.238;9.562;2022-12-18T05:43:47;-5.80;74.40
3416;DHT22;1721;51.238;9.562;2022-12-18T05:46:17;-5.80;74.20
3416;DHT22;1721;51.238;9.562;2022-12-18T05:48:44;-5.80;73.80
3416;DHT22;1721;51.238;9.562;2022-12-18T05:51:12;-5.70;73.30
3416;DHT22;1721;51.238;9.562;2022-12-18T05:53:38;-5.80;72.60
3416;DHT22;1721;51.238;9.562;2022-12-18T05:56:05;-5.80;72.40
3416;DHT22;1721;51.238;9.562;2022-12-18T05:58:32;-5.90;72.00
3416;DHT22;1721;51.238;9.562;2022-12-18T06:00:58;-5.80;71.90
3416;DHT22;1721;51.238;9.562;2022-12-18T06:03:30;-5.90;71.60
3416;DHT22;1721;51.238;9.562;2022-12-18T06:05:56;-5.90;71.60
3416;DHT22;1721;51.238;9.562;2022-12-18T06:08:21;-6.00;71.40
3416;DHT22;1721;51.238;9.562;2022-12-18T06:10:51;-6.00;71.60
3416;DHT22;1721;51.238;9.562;2022-12-18T06:13:18;-6.00;72.00
3416;DHT22;1721;51.238;9.562;2022-12-18T06:15:43;-6.00;71.80
3416;DHT22;1721;51.238;9.562;2022-12-18T06:18:09;-6.00;71.50
3416;DHT22;1721;51.238;9.562;2022-12-18T06:20:34;-6.00;71.30
3416;DHT22;1721;51.238;9.562;2022-12-18T06:23:03;-6.10;71.00
3416;DHT22;1721;51.238;9.562;2022-12-18T06:25:28;-6.10;71.30
3416;DHT22;1721;51.238;9.562;2022-12-18T06:27:54;-6.10;71.50
3416;DHT22;1721;51.238;9.562;2022-12-18T06:30:19;-6.10;71.50
3416;DHT22;1721;51.238;9.562;2022-12-18T06:32:45;-6.10;71.50
3416;DHT22;1721;51.238;9.562;2022-12-18T06:35:11;-6.10;71.60
3416;DHT22;1721;51.238;9.562;2022-12-18T06:37:36;-6.10;71.50
3416;DHT22;1721;51.238;9.562;2022-12-18T06:40:02;-6.10;71.30
3416;DHT22;1721;51.238;9.562;2022-12-18T06:42:28;-6.10;71.20
3416;DHT22;1721;51.238;9.562;2022-12-18T06:44:54;-6.10;71.20
3416;DHT22;1721;51.238;9.562;2022-12-18T06:47:19;-6.00;71.30
3416;DHT22;1721;51.238;9.562;2022-12-18T06:49:45;-6.00;71.40
3416;DHT22;1721;51.238;9.562;2022-12-18T06:52:11;-6.10;71.60
3416;DHT22;1721;51.238;9.562;2022-12-18T06:54:36;-6.00;71.80
3416;DHT22;1721;51.238;9.562;2022-12-18T06:57:02;-6.00;71.80
3416;DHT22;1721;51.238;9.562;2022-12-18T06:59:27;-6.00;71.90
3416;DHT22;1721;51.238;9.562;2022-12-18T07:01:53;-6.00;71.90
3416;DHT22;1721;51.238;9.562;2022-12-18T07:04:18;-6.20;73.40
3416;DHT22;1721;51.238;9.562;2022-12-18T07:06:44;-6.20;73.30
3416;DHT22;1721;51.238;9.562;2022-12-18T07:09:09;-6.10;73.50
3416;DHT22;1721;51.238;9.562;2022-12-18T07:11:35;-6.00;73.20
3416;DHT22;1721;51.238;9.562;2022-12-18T07:14:00;-6.00;72.70
3416;DHT22;1721;51.238;9.562;2022-12-18T07:16:26;-6.20;72.20
3416;DHT22;1721;51.238;9.562;2022-12-18T07:18:54;-6.20;72.40
3416;DHT22;1721;51.238;9.562;2022-12-18T07:21:21;-6.20;71.80
3416;DHT22;1721;51.238;9.562;2022-12-18T07:23:47;-6.30;72.40
3416;DHT22;1721;51.238;9.562;2022-12-18T07:26:14;-6.30;72.40
3416;DHT22;1721;51.238;9.562;2022-12-18T07:28:41;-6.20;72.50
3416;DHT22;1721;51.238;9.562;2022-12-18T07:31:19;-6.20;72.40
3416;DHT22;1721;51.238;9.562;2022-12-18T07:33:45;-6.20;72.40
3416;DHT22;1721;51.238;9.562;2022-12-18T07:36:11;-6.20;72.70
3416;DHT22;1721;51.238;9.562;2022-12-18T07:38:37;-6.10;73.00
3416;DHT22;1721;51.238;9.562;2022-12-18T07:41:08;-6.00;72.80
3416;DHT22;1721;51.238;9.562;2022-12-18T07:43:35;-5.90;72.40
3416;DHT22;1721;51.238;9.562;2022-12-18T07:46:01;-6.00;72.30
3416;DHT22;1721;51.238;9.562;2022-12-18T07:48:28;-6.00;72.60
3416;DHT22;1721;51.238;9.562;2022-12-18T07:50:59;-5.90;73.10
3416;DHT22;1721;51.238;9.562;2022-12-18T07:53:25;-6.00;73.20
3416;DHT22;1721;51.238;9.562;2022-12-18T07:55:58;-5.90;73.10
3416;DHT22;1721;51.238;9.562;2022-12-18T07:58:24;-5.80;73.00
3416;DHT22;1721;51.238;9.562;2022-12-18T08:00:50;-5.70;73.00
3416;DHT22;1721;51.238;9.562;2022-12-18T08:03:16;-5.70;72.90
3416;DHT22;1721;51.238;9.562;2022-12-18T08:05:41;-5.60;73.20
3416;DHT22;1721;51.238;9.562;2022-12-18T08:08:07;-5.60;73.50
3416;DHT22;1721;51.238;9.562;2022-12-18T08:10:32;-5.60;74.10
3416;DHT22;1721;51.238;9.562;2022-12-18T08:12:58;-5.70;74.30
3416;DHT22;1721;51.238;9.562;2022-12-18T08:15:23;-5.60;75.10
3416;DHT22;1721;51.238;9.562;2022-12-18T08:17:49;-5.60;75.10
3416;DHT22;1721;51.238;9.562;2022-12-18T08:20:14;-5.40;74.90
3416;DHT22;1721;51.238;9.562;2022-12-18T08:22:41;-5.40;74.30
3416;DHT22;1721;51.238;9.562;2022-12-18T08:25:07;-5.40;73.90
3416;DHT22;1721;51.238;9.562;2022-12-18T08:27:33;-5.50;74.10
3416;DHT22;1721;51.238;9.562;2022-12-18T08:29:59;-5.60;74.50
3416;DHT22;1721;51.238;9.562;2022-12-18T08:32:25;-5.50;75.50
3416;DHT22;1721;51.238;9.562;2022-12-18T08:34:51;-5.50;75.40
3416;DHT22;1721;51.238;9.562;2022-12-18T08:37:17;-5.50;76.40
3416;DHT22;1721;51.238;9.562;2022-12-18T08:39:42;-5.50;77.10
3416;DHT22;1721;51.238;9.562;2022-12-18T08:42:09;-5.30;76.90
3416;DHT22;1721;51.238;9.562;2022-12-18T08:44:53;-5.10;76.60
3416;DHT22;1721;51.238;9.562;2022-12-18T08:47:19;-5.00;76.50
3416;DHT22;1721;51.238;9.562;2022-12-18T08:49:44;-4.90;76.70
3416;DHT22;1721;51.238;9.562;2022-12-18T08:52:10;-4.70;76.50
3416;DHT22;1721;51.238;9.562;2022-12-18T08:54:36;-4.80;77.10
3416;DHT22;1721;51.238;9.562;2022-12-18T08:57:02;-4.50;77.70
3416;DHT22;1721;51.238;9.562;2022-12-18T08:59:27;-4.50;77.60
3416;DHT22;1721;51.238;9.562;2022-12-18T09:01:54;-4.20;77.80
3416;DHT22;1721;51.238;9.562;2022-12-18T09:04:20;-4.10;77.50
3416;DHT22;1721;51.238;9.562;2022-12-18T09:06:46;-4.20;77.20
3416;DHT22;1721;51.238;9.562;2022-12-18T09:09:12;-4.30;77.50
3416;DHT22;1721;51.238;9.562;2022-12-18T09:11:38;-4.40;77.60
3416;DHT22;1721;51.238;9.562;2022-12-18T09:14:03;-4.50;78.30
3416;DHT22;1721;51.238;9.562;2022-12-18T09:16:29;-4.50;78.40
3416;DHT22;1721;51.238;9.562;2022-12-18T09:18:56;-4.40;78.30
3416;DHT22;1721;51.238;9.562;2022-12-18T09:21:26;-4.30;78.70
3416;DHT22;1721;51.238;9.562;2022-12-18T09:23:55;-4.10;78.50
3416;DHT22;1721;51.238;9.562;2022-12-18T09:26:22;-3.90;78.10
3416;DHT22;1721;51.238;9.562;2022-12-18T09:28:48;-3.80;78.00
3416;DHT22;1721;51.238;9.562;2022-12-18T09:31:14;-4.00;78.30
3416;DHT22;1721;51.238;9.562;2022-12-18T09:33:41;-4.30;79.40
3416;DHT22;1721;51.238;9.562;2022-12-18T09:36:09;-4.10;78.90
3416;DHT22;1721;51.238;9.562;2022-12-18T09:38:35;-4.10;79.70
3416;DHT22;1721;51.238;9.562;2022-12-18T09:41:06;-4.20;79.40
3416;DHT22;1721;51.238;9.562;2022-12-18T09:43:43;-4.10;79.80
3416;DHT22;1721;51.238;9.562;2022-12-18T09:46:27;-4.20;80.00
3416;DHT22;1721;51.238;9.562;2022-12-18T09:48:57;-4.00;80.50
3416;DHT22;1721;51.238;9.562;2022-12-18T09:51:35;-4.10;81.50
3416;DHT22;1721;51.238;9.562;2022-12-18T09:54:06;-4.00;81.30
3416;DHT22;1721;51.238;9.562;2022-12-18T09:56:38;-4.00;81.70
3416;DHT22;1721;51.238;9.562;2022-12-18T09:59:05;-3.90;80.90
3416;DHT22;1721;51.238;9.562;2022-12-18T10:01:32;-3.80;81.30
3416;DHT22;1721;51.238;9.562;2022-12-18T10:03:58;-3.80;81.00
3416;DHT22;1721;51.238;9.562;2022-12-18T10:06:35;-3.50;80.80
3416;DHT22;1721;51.238;9.562;2022-12-18T10:09:32;-3.50;80.30
3416;DHT22;1721;51.238;9.562;2022-12-18T10:12:08;-3.50;81.30
3416;DHT22;1721;51.238;9.562;2022-12-18T10:15:04;-3.40;81.20
3416;DHT22;1721;51.238;9.562;2022-12-18T10:23:11;-3.10;82.50
3416;DHT22;1721;51.238;9.562;2022-12-18T10:26:05;-3.20;83.50
3416;DHT22;1721;51.238;9.562;2022-12-18T10:28:34;-3.30;84.00
3416;DHT22;1721;51.238;9.562;2022-12-18T10:31:01;-3.20;83.70
3416;DHT22;1721;51.238;9.562;2022-12-18T10:33:30;-3.30;83.70
3416;DHT22;1721;51.238;9.562;2022-12-18T10:35:57;-3.20;83.60
3416;DHT22;1721;51.238;9.562;2022-12-18T10:38:28;-3.00;83.60
3416;DHT22;1721;51.238;9.562;2022-12-18T10:41:04;-2.90;83.40
3416;DHT22;1721;51.238;9.562;2022-12-18T10:43:38;-3.00;84.10
3416;DHT22;1721;51.238;9.562;2022-12-18T10:51:42;-2.80;83.30
3416;DHT22;1721;51.238;9.562;2022-12-18T10:54:21;-2.90;83.70
3416;DHT22;1721;51.238;9.562;2022-12-18T10:56:47;-2.90;84.10
3416;DHT22;1721;51.238;9.562;2022-12-18T10:59:15;-2.80;84.10
3416;DHT22;1721;51.238;9.562;2022-12-18T11:04:21;-2.90;85.30
3416;DHT22;1721;51.238;9.562;2022-12-18T11:09:29;-3.00;86.00
3416;DHT22;1721;51.238;9.562;2022-12-18T11:11:59;-2.80;86.10
3416;DHT22;1721;51.238;9.562;2022-12-18T11:14:26;-2.70;85.90
3416;DHT22;1721;51.238;9.562;2022-12-18T11:16:52;-2.80;85.90
3416;DHT22;1721;51.238;9.562;2022-12-18T11:19:39;-2.60;86.10
3416;DHT22;1721;51.238;9.562;2022-12-18T11:22:45;-2.50;86.10
3416;DHT22;1721;51.238;9.562;2022-12-18T11:25:19;-2.60;85.50
3416;DHT22;1721;51.238;9.562;2022-12-18T11:27:53;-2.50;84.90
3416;DHT22;1721;51.238;9.562;2022-12-18T11:32:48;-2.80;85.40
3416;DHT22;1721;51.238;9.562;2022-12-18T11:35:21;-2.80;86.60
3416;DHT22;1721;51.238;9.562;2022-12-18T11:37:59;-2.80;87.50
3416;DHT22;1721;51.238;9.562;2022-12-18T11:40:36;-2.60;87.30
3416;DHT22;1721;51.238;9.562;2022-12-18T11:43:28;-2.50;87.20
3416;DHT22;1721;51.238;9.562;2022-12-18T11:46:00;-2.40;86.80
3416;DHT22;1721;51.238;9.562;2022-12-18T11:48:37;-2.20;85.80
3416;DHT22;1721;51.238;9.562;2022-12-18T11:51:05;-1.90;84.90
3416;DHT22;1721;51.238;9.562;2022-12-18T11:53:35;-1.90;84.90
3416;DHT22;1721;51.238;9.562;2022-12-18T11:56:29;-1.80;84.40
3416;DHT22;1721;51.238;9.562;2022-12-18T12:01:48;-1.80;85.00
3416;DHT22;1721;51.238;9.562;2022-12-18T12:10:14;-1.80;85.70
3416;DHT22;1721;51.238;9.562;2022-12-18T12:26:25;-1.00;86.50
3416;DHT22;1721;51.238;9.562;2022-12-18T12:37:42;-0.30;86.00
3416;DHT22;1721;51.238;9.562;2022-12-18T12:40:20;-0.20;85.00
3416;DHT22;1721;51.238;9.562;2022-12-18T12:42:54;-0.10;84.10
3416;DHT22;1721;51.238;9.562;2022-12-18T12:46:08;0.10;83.70
3416;DHT22;1721;51.238;9.562;2022-12-18T12:48:36;0.20;83.70
3416;DHT22;1721;51.238;9.562;2022-12-18T12:51:22;0.20;83.30
3416;DHT22;1721;51.238;9.562;2022-12-18T12:53:49;0.30;83.20
3416;DHT22;1721;51.238;9.562;2022-12-18T12:56:18;0.40;83.50
3416;DHT22;1721;51.238;9.562;2022-12-18T13:02:04;0.50;82.80
3416;DHT22;1721;51.238;9.562;2022-12-18T13:04:18;0.50;81.80
3416;DHT22;1721;51.238;9.562;2022-12-18T13:06:52;0.70;82.60
3416;DHT22;1721;51.238;9.562;2022-12-18T13:09:18;0.90;82.50
3416;DHT22;1721;51.238;9.562;2022-12-18T13:11:47;1.00;81.80
3416;DHT22;1721;51.238;9.562;2022-12-18T13:14:34;0.90;81.10
3416;DHT22;1721;51.238;9.562;2022-12-18T13:19:55;1.10;81.60
3416;DHT22;1721;51.238;9.562;2022-12-18T13:22:38;1.20;81.30
3416;DHT22;1721;51.238;9.562;2022-12-18T13:28:15;1.40;81.10
3416;DHT22;1721;51.238;9.562;2022-12-18T13:30:46;1.40;81.50
3416;DHT22;1721;51.238;9.562;2022-12-18T13:48:20;0.90;81.00
3416;DHT22;1721;51.238;9.562;2022-12-18T13:50:59;0.80;80.70
3416;DHT22;1721;51.238;9.562;2022-12-18T13:53:33;0.80;81.10
3416;DHT22;1721;51.238;9.562;2022-12-18T13:55:59;0.80;80.90
3416;DHT22;1721;51.238;9.562;2022-12-18T13:58:25;0.80;80.70
3416;DHT22;1721;51.238;9.562;2022-12-18T14:00:50;0.80;80.90
3416;DHT22;1721;51.238;9.562;2022-12-18T14:03:22;0.80;81.30
3416;DHT22;1721;51.238;9.562;2022-12-18T14:05:53;0.70;81.70
3416;DHT22;1721;51.238;9.562;2022-12-18T14:08:20;0.60;82.30
3416;DHT22;1721;51.238;9.562;2022-12-18T14:10:48;0.50;82.40
3416;DHT22;1721;51.238;9.562;2022-12-18T14:13:26;0.50;82.80
3416;DHT22;1721;51.238;9.562;2022-12-18T14:15:53;0.60;82.60
3416;DHT22;1721;51.238;9.562;2022-12-18T14:20:49;0.40;82.50
3416;DHT22;1721;51.238;9.562;2022-12-18T14:23:37;0.40;82.60
3416;DHT22;1721;51.238;9.562;2022-12-18T14:26:23;0.50;82.80
3416;DHT22;1721;51.238;9.562;2022-12-18T14:28:49;0.50;82.80
3416;DHT22;1721;51.238;9.562;2022-12-18T14:31:25;0.50;82.80
3416;DHT22;1721;51.238;9.562;2022-12-18T14:33:52;0.60;83.20
3416;DHT22;1721;51.238;9.562;2022-12-18T14:36:20;0.50;82.40
3416;DHT22;1721;51.238;9.562;2022-12-18T14:38:51;0.50;82.50
3416;DHT22;1721;51.238;9.562;2022-12-18T14:41:17;0.40;81.50
3416;DHT22;1721;51.238;9.562;2022-12-18T14:43:46;0.30;81.40
3416;DHT22;1721;51.238;9.562;2022-12-18T14:46:37;0.40;82.10
3416;DHT22;1721;51.238;9.562;2022-12-18T14:51:56;0.50;82.90
3416;DHT22;1721;51.238;9.562;2022-12-18T14:54:23;0.50;82.80
3416;DHT22;1721;51.238;9.562;2022-12-18T14:56:51;0.50;82.90
3416;DHT22;1721;51.238;9.562;2022-12-18T14:59:21;0.50;83.10
3416;DHT22;1721;51.238;9.562;2022-12-18T15:04:30;0.40;82.30
3416;DHT22;1721;51.238;9.562;2022-12-18T15:07:09;0.50;82.30
3416;DHT22;1721;51.238;9.562;2022-12-18T15:09:35;0.50;82.60
3416;DHT22;1721;51.238;9.562;2022-12-18T15:12:01;0.50;83.20
3416;DHT22;1721;51.238;9.562;2022-12-18T15:14:34;0.60;82.70
3416;DHT22;1721;51.238;9.562;2022-12-18T15:17:15;0.60;82.60
3416;DHT22;1721;51.238;9.562;2022-12-18T15:19:42;0.50;82.40
3416;DHT22;1721;51.238;9.562;2022-12-18T15:22:19;0.40;82.30
3416;DHT22;1721;51.238;9.562;2022-12-18T15:24:45;0.30;82.50
3416;DHT22;1721;51.238;9.562;2022-12-18T15:27:23;0.30;82.90
3416;DHT22;1721;51.238;9.562;2022-12-18T15:32:33;0.30;83.20
3416;DHT22;1721;51.238;9.562;2022-12-18T15:35:38;0.30;83.10
3416;DHT22;1721;51.238;9.562;2022-12-18T15:38:03;0.30;83.10
3416;DHT22;1721;51.238;9.562;2022-12-18T15:40:29;0.30;83.30
3416;DHT22;1721;51.238;9.562;2022-12-18T15:42:55;0.20;83.30
3416;DHT22;1721;51.238;9.562;2022-12-18T15:45:39;0.20;83.50
3416;DHT22;1721;51.238;9.562;2022-12-18T15:48:23;0.20;83.60
3416;DHT22;1721;51.238;9.562;2022-12-18T15:50:53;0.20;83.50
3416;DHT22;1721;51.238;9.562;2022-12-18T15:53:22;0.30;83.50
3416;DHT22;1721;51.238;9.562;2022-12-18T15:55:48;0.30;83.30
3416;DHT22;1721;51.238;9.562;2022-12-18T15:58:32;0.30;83.50
3416;DHT22;1721;51.238;9.562;2022-12-18T16:00:59;0.30;83.40
3416;DHT22;1721;51.238;9.562;2022-12-18T16:03:24;0.40;83.40
3416;DHT22;1721;51.238;9.562;2022-12-18T16:05:50;0.40;83.30
3416;DHT22;1721;51.238;9.562;2022-12-18T16:08:16;0.40;83.20
3416;DHT22;1721;51.238;9.562;2022-12-18T16:10:41;0.40;83.20
3416;DHT22;1721;51.238;9.562;2022-12-18T16:13:11;0.40;82.90
3416;DHT22;1721;51.238;9.562;2022-12-18T16:15:37;0.40;82.60
3416;DHT22;1721;51.238;9.562;2022-12-18T16:18:02;0.40;82.80
3416;DHT22;1721;51.238;9.562;2022-12-18T16:20:28;0.40;82.80
3416;DHT22;1721;51.238;9.562;2022-12-18T16:22:53;0.50;82.90
3416;DHT22;1721;51.238;9.562;2022-12-18T16:25:24;0.50;82.50
3416;DHT22;1721;51.238;9.562;2022-12-18T16:27:51;0.50;82.50
3416;DHT22;1721;51.238;9.562;2022-12-18T16:30:21;0.30;81.30
3416;DHT22;1721;51.238;9.562;2022-12-18T16:32:47;-0.10;82.40
3416;DHT22;1721;51.238;9.562;2022-12-18T16:35:13;0.10;82.50
3416;DHT22;1721;51.238;9.562;2022-12-18T16:37:40;0.00;81.80
3416;DHT22;1721;51.238;9.562;2022-12-18T16:40:11;-0.10;80.40
3416;DHT22;1721;51.238;9.562;2022-12-18T16:42:39;-0.20;81.80
3416;DHT22;1721;51.238;9.562;2022-12-18T16:45:07;0.10;81.90
3416;DHT22;1721;51.238;9.562;2022-12-18T16:47:33;0.30;82.20
3416;DHT22;1721;51.238;9.562;2022-12-18T16:49:59;0.50;82.10
3416;DHT22;1721;51.238;9.562;2022-12-18T16:52:25;0.40;82.10
3416;DHT22;1721;51.238;9.562;2022-12-18T16:54:51;0.30;81.40
3416;DHT22;1721;51.238;9.562;2022-12-18T16:57:18;0.20;82.00
3416;DHT22;1721;51.238;9.562;2022-12-18T16:59:45;0.20;82.50
3416;DHT22;1721;51.238;9.562;2022-12-18T17:02:21;0.30;82.40
3416;DHT22;1721;51.238;9.562;2022-12-18T17:04:47;0.40;81.90
3416;DHT22;1721;51.238;9.562;2022-12-18T17:07:14;0.50;82.20
3416;DHT22;1721;51.238;9.562;2022-12-18T17:09:40;0.50;81.80
3416;DHT22;1721;51.238;9.562;2022-12-18T17:12:06;0.50;81.60
3416;DHT22;1721;51.238;9.562;2022-12-18T17:14:32;0.40;81.90
3416;DHT22;1721;51.238;9.562;2022-12-18T17:16:58;0.10;81.30
3416;DHT22;1721;51.238;9.562;2022-12-18T17:19:25;0.10;82.60
3416;DHT22;1721;51.238;9.562;2022-12-18T17:21:51;0.10;82.80
3416;DHT22;1721;51.238;9.562;2022-12-18T17:24:17;0.00;81.60
3416;DHT22;1721;51.238;9.562;2022-12-18T17:26:44;0.00;81.40
3416;DHT22;1721;51.238;9.562;2022-12-18T17:29:13;-0.10;81.10
3416;DHT22;1721;51.238;9.562;2022-12-18T17:31:39;0.20;81.80
3416;DHT22;1721;51.238;9.562;2022-12-18T17:34:05;0.30;81.50
3416;DHT22;1721;51.238;9.562;2022-12-18T17:36:31;0.50;81.50
3416;DHT22;1721;51.238;9.562;2022-12-18T17:38:58;0.40;80.50
3416;DHT22;1721;51.238;9.562;2022-12-18T17:41:25;0.40;81.30
3416;DHT22;1721;51.238;9.562;2022-12-18T17:43:56;0.20;81.70
3416;DHT22;1721;51.238;9.562;2022-12-18T17:46:22;0.30;81.90
3416;DHT22;1721;51.238;9.562;2022-12-18T17:48:48;0.30;81.60
3416;DHT22;1721;51.238;9.562;2022-12-18T17:51:14;0.10;81.30
3416;DHT22;1721;51.238;9.562;2022-12-18T17:53:40;0.00;81.70
3416;DHT22;1721;51.238;9.562;2022-12-18T17:56:08;-0.20;82.00
3416;DHT22;1721;51.238;9.562;2022-12-18T17:58:35;-0.20;83.10
3416;DHT22;1721;51.238;9.562;2022-12-18T18:01:02;-0.40;83.30
3416;DHT22;1721;51.238;9.562;2022-12-18T18:03:28;-0.30;83.60
3416;DHT22;1721;51.238;9.562;2022-12-18T18:05:55;-0.30;83.70
3416;DHT22;1721;51.238;9.562;2022-12-18T18:08:21;-0.30;84.10